sensor_id;sensor_type;location;lat;lon;timestamp;P1;durP1;ratioP1;P2;durP2;ratioP2
59336;SDS011;45115;52.002;4.686;2022-08-01T00:02:12;16.33;;;7.40;;
59336;SDS011;45115;52.002;4.686;2022-08-01T00:04:39;13.02;;;6.40;;
59336;SDS011;45115;52.002;4.686;2022-08-01T00:07:05;13.98;;;6.30;;
59336;SDS011;45115;52.002;4.686;2022-08-01T00:09:32;14.50;;;6.53;;
59336;SDS011;45115;52.002;4.686;2022-08-01T00:11:59;14.52;;;6.93;;
59336;SDS011;45115;52.002;4.686;2022-08-01T00:14:26;15.07;;;7.20;;
59336;SDS011;45115;52.002;4.686;2022-08-01T00:16:53;16.65;;;7.88;;
59336;SDS011;45115;52.002;4.686;2022-08-01T00:19:20;14.18;;;7.13;;
59336;SDS011;45115;52.002;4.686;2022-08-01T00:21:46;15.15;;;7.80;;
59336;SDS011;45115;52.002;4.686;2022-08-01T00:24:13;18.00;;;8.65;;
59336;SDS011;45115;52.002;4.686;2022-08-01T00:26:39;16.45;;;7.93;;
59336;SDS011;45115;52.002;4.686;2022-08-01T00:29:06;15.85;;;7.60;;
59336;SDS011;45115;52.002;4.686;2022-08-01T00:31:34;17.65;;;8.85;;
59336;SDS011;45115;52.002;4.686;2022-08-01T00:34:01;18.95;;;8.32;;
59336;SDS011;45115;52.002;4.686;2022-08-01T00:36:27;16.55;;;7.72;;
59336;SDS011;45115;52.002;4.686;2022-08-01T00:38:54;19.42;;;8.68;;
59336;SDS011;45115;52.002;4.686;2022-08-01T00:41:21;19.38;;;8.05;;
59336;SDS011;45115;52.002;4.686;2022-08-01T00:43:47;16.45;;;7.50;;
59336;SDS011;45115;52.002;4.686;2022-08-01T00:46:14;16.17;;;7.55;;
59336;SDS011;45115;52.002;4.686;2022-08-01T00:48:42;16.83;;;7.78;;
59336;SDS011;45115;52.002;4.686;2022-08-01T00:51:09;17.67;;;8.18;;
59336;SDS011;45115;52.002;4.686;2022-08-01T00:53:36;17.80;;;8.15;;
59336;SDS011;45115;52.002;4.686;2022-08-01T00:56:03;19.38;;;8.75;;
59336;SDS011;45115;52.002;4.686;2022-08-01T00:58:30;16.65;;;8.30;;
59336;SDS011;45115;52.002;4.686;2022-08-01T01:00:57;17.45;;;7.90;;
59336;SDS011;45115;52.002;4.686;2022-08-01T01:03:24;20.17;;;8.30;;
59336;SDS011;45115;52.002;4.686;2022-08-01T01:05:54;17.00;;;8.68;;
59336;SDS011;45115;52.002;4.686;2022-08-01T01:08:27;17.42;;;8.50;;
59336;SDS011;45115;52.002;4.686;2022-08-01T01:11:00;17.60;;;8.05;;
59336;SDS011;45115;52.002;4.686;2022-08-01T01:13:31;19.73;;;8.10;;
59336;SDS011;45115;52.002;4.686;2022-08-01T01:16:05;14.65;;;7.57;;
59336;SDS011;45115;52.002;4.686;2022-08-01T01:18:35;15.10;;;7.97;;
59336;SDS011;45115;52.002;4.686;2022-08-01T01:21:13;17.65;;;8.48;;
59336;SDS011;45115;52.002;4.686;2022-08-01T01:23:54;15.40;;;7.18;;
59336;SDS011;45115;52.002;4.686;2022-08-01T01:26:31;16.90;;;7.40;;
59336;SDS011;45115;52.002;4.686;2022-08-01T01:29:08;17.42;;;7.82;;
59336;SDS011;45115;52.002;4.686;2022-08-01T01:31:41;18.90;;;8.02;;
59336;SDS011;45115;52.002;4.686;2022-08-01T01:34:12;19.73;;;7.97;;
59336;SDS011;45115;52.002;4.686;2022-08-01T01:36:41;18.10;;;7.53;;
59336;SDS011;45115;52.002;4.686;2022-08-01T01:39:10;15.23;;;6.68;;
59336;SDS011;45115;52.002;4.686;2022-08-01T01:41:39;15.32;;;6.93;;
59336;SDS011;45115;52.002;4.686;2022-08-01T01:44:08;16.00;;;6.25;;
59336;SDS011;45115;52.002;4.686;2022-08-01T01:46:36;13.82;;;6.85;;
59336;SDS011;45115;52.002;4.686;2022-08-01T01:49:03;16.80;;;7.10;;
59336;SDS011;45115;52.002;4.686;2022-08-01T01:51:35;16.58;;;6.80;;
59336;SDS011;45115;52.002;4.686;2022-08-01T01:54:03;15.02;;;6.88;;
59336;SDS011;45115;52.002;4.686;2022-08-01T01:56:33;14.57;;;6.03;;
59336;SDS011;45115;52.002;4.686;2022-08-01T01:59:15;12.45;;;5.55;;
59336;SDS011;45115;52.002;4.686;2022-08-01T02:01:44;13.68;;;5.75;;
59336;SDS011;45115;52.002;4.686;2022-08-01T02:04:14;15.77;;;5.60;;
59336;SDS011;45115;52.002;4.686;2022-08-01T02:06:42;13.23;;;4.93;;
59336;SDS011;45115;52.002;4.686;2022-08-01T02:09:11;11.52;;;5.03;;
59336;SDS011;45115;52.002;4.686;2022-08-01T02:11:42;6.97;;;4.18;;
59336;SDS011;45115;52.002;4.686;2022-08-01T02:14:10;11.13;;;4.28;;
59336;SDS011;45115;52.002;4.686;2022-08-01T02:16:41;8.13;;;4.70;;
59336;SDS011;45115;52.002;4.686;2022-08-01T02:19:10;11.00;;;4.65;;
59336;SDS011;45115;52.002;4.686;2022-08-01T02:21:38;13.05;;;5.63;;
59336;SDS011;45115;52.002;4.686;2022-08-01T02:24:09;10.23;;;5.00;;
59336;SDS011;45115;52.002;4.686;2022-08-01T02:26:41;12.32;;;5.00;;
59336;SDS011;45115;52.002;4.686;2022-08-01T02:29:13;11.50;;;4.97;;
59336;SDS011;45115;52.002;4.686;2022-08-01T02:31:46;13.50;;;5.57;;
59336;SDS011;45115;52.002;4.686;2022-08-01T02:34:15;11.15;;;5.65;;
59336;SDS011;45115;52.002;4.686;2022-08-01T02:36:44;12.25;;;5.25;;
59336;SDS011;45115;52.002;4.686;2022-08-01T02:39:13;11.55;;;5.20;;
59336;SDS011;45115;52.002;4.686;2022-08-01T02:41:41;9.88;;;4.90;;
59336;SDS011;45115;52.002;4.686;2022-08-01T02:44:13;11.40;;;5.30;;
59336;SDS011;45115;52.002;4.686;2022-08-01T02:46:49;10.60;;;5.30;;
59336;SDS011;45115;52.002;4.686;2022-08-01T02:49:17;11.65;;;4.80;;
59336;SDS011;45115;52.002;4.686;2022-08-01T02:51:46;10.73;;;4.75;;
59336;SDS011;45115;52.002;4.686;2022-08-01T02:54:14;10.85;;;4.80;;
59336;SDS011;45115;52.002;4.686;2022-08-01T02:56:44;9.93;;;5.10;;
59336;SDS011;45115;52.002;4.686;2022-08-01T02:59:15;12.07;;;4.85;;
59336;SDS011;45115;52.002;4.686;2022-08-01T03:01:44;9.73;;;4.88;;
59336;SDS011;45115;52.002;4.686;2022-08-01T03:04:14;9.93;;;4.70;;
59336;SDS011;45115;52.002;4.686;2022-08-01T03:09:10;10.70;;;4.95;;
59336;SDS011;45115;52.002;4.686;2022-08-01T03:11:38;11.40;;;5.32;;
59336;SDS011;45115;52.002;4.686;2022-08-01T03:14:07;14.90;;;5.75;;
59336;SDS011;45115;52.002;4.686;2022-08-01T03:16:36;11.13;;;5.13;;
59336;SDS011;45115;52.002;4.686;2022-08-01T03:19:05;12.75;;;5.80;;
59336;SDS011;45115;52.002;4.686;2022-08-01T03:21:34;13.15;;;5.93;;
59336;SDS011;45115;52.002;4.686;2022-08-01T03:24:03;12.53;;;6.27;;
59336;SDS011;45115;52.002;4.686;2022-08-01T03:26:33;13.32;;;5.90;;
59336;SDS011;45115;52.002;4.686;2022-08-01T03:29:04;12.10;;;5.40;;
59336;SDS011;45115;52.002;4.686;2022-08-01T03:31:33;13.75;;;6.07;;
59336;SDS011;45115;52.002;4.686;2022-08-01T03:34:01;12.48;;;5.40;;
59336;SDS011;45115;52.002;4.686;2022-08-01T03:36:29;10.52;;;4.72;;
59336;SDS011;45115;52.002;4.686;2022-08-01T03:38:59;10.88;;;4.72;;
59336;SDS011;45115;52.002;4.686;2022-08-01T03:41:31;10.52;;;5.50;;
59336;SDS011;45115;52.002;4.686;2022-08-01T03:44:05;11.80;;;5.65;;
59336;SDS011;45115;52.002;4.686;2022-08-01T03:46:42;10.63;;;5.43;;
59336;SDS011;45115;52.002;4.686;2022-08-01T03:49:14;11.82;;;5.35;;
59336;SDS011;45115;52.002;4.686;2022-08-01T03:51:43;11.25;;;5.22;;
59336;SDS011;45115;52.002;4.686;2022-08-01T03:54:14;11.02;;;5.35;;
59336;SDS011;45115;52.002;4.686;2022-08-01T03:56:43;12.23;;;5.15;;
59336;SDS011;45115;52.002;4.686;2022-08-01T03:59:13;13.43;;;5.20;;
59336;SDS011;45115;52.002;4.686;2022-08-01T04:01:43;11.07;;;4.63;;
59336;SDS011;45115;52.002;4.686;2022-08-01T04:04:11;8.15;;;3.95;;
59336;SDS011;45115;52.002;4.686;2022-08-01T04:06:38;9.15;;;4.47;;
59336;SDS011;45115;52.002;4.686;2022-08-01T04:09:06;8.75;;;4.13;;
59336;SDS011;45115;52.002;4.686;2022-08-01T04:11:34;9.40;;;4.30;;
59336;SDS011;45115;52.002;4.686;2022-08-01T04:14:01;13.15;;;4.53;;
59336;SDS011;45115;52.002;4.686;2022-08-01T04:16:28;8.20;;;4.20;;
59336;SDS011;45115;52.002;4.686;2022-08-01T04:18:55;9.65;;;4.45;;
59336;SDS011;45115;52.002;4.686;2022-08-01T04:21:22;8.48;;;4.00;;
59336;SDS011;45115;52.002;4.686;2022-08-01T04:23:52;9.13;;;4.25;;
59336;SDS011;45115;52.002;4.686;2022-08-01T04:26:22;7.50;;;3.80;;
59336;SDS011;45115;52.002;4.686;2022-08-01T04:28:52;8.45;;;3.90;;
59336;SDS011;45115;52.002;4.686;2022-08-01T04:31:21;9.35;;;4.10;;
59336;SDS011;45115;52.002;4.686;2022-08-01T04:33:51;9.25;;;4.57;;
59336;SDS011;45115;52.002;4.686;2022-08-01T04:36:20;9.68;;;4.40;;
59336;SDS011;45115;52.002;4.686;2022-08-01T04:38:50;10.13;;;4.15;;
59336;SDS011;45115;52.002;4.686;2022-08-01T04:43:48;11.57;;;4.20;;
59336;SDS011;45115;52.002;4.686;2022-08-01T04:46:17;10.95;;;4.78;;
59336;SDS011;45115;52.002;4.686;2022-08-01T04:48:45;9.48;;;4.78;;
59336;SDS011;45115;52.002;4.686;2022-08-01T04:51:13;10.55;;;4.90;;
59336;SDS011;45115;52.002;4.686;2022-08-01T04:53:41;9.43;;;4.65;;
59336;SDS011;45115;52.002;4.686;2022-08-01T04:56:08;9.55;;;4.68;;
59336;SDS011;45115;52.002;4.686;2022-08-01T04:58:38;9.10;;;4.28;;
59336;SDS011;45115;52.002;4.686;2022-08-01T05:01:05;9.32;;;4.10;;
59336;SDS011;45115;52.002;4.686;2022-08-01T05:03:33;11.73;;;4.63;;
59336;SDS011;45115;52.002;4.686;2022-08-01T05:05:59;8.43;;;4.70;;
59336;SDS011;45115;52.002;4.686;2022-08-01T05:08:26;8.20;;;4.20;;
59336;SDS011;45115;52.002;4.686;2022-08-01T05:10:52;8.43;;;4.00;;
59336;SDS011;45115;52.002;4.686;2022-08-01T05:13:19;10.80;;;4.97;;
59336;SDS011;45115;52.002;4.686;2022-08-01T05:15:46;8.20;;;4.10;;
59336;SDS011;45115;52.002;4.686;2022-08-01T05:18:12;7.65;;;4.15;;
59336;SDS011;45115;52.002;4.686;2022-08-01T05:20:41;8.38;;;3.38;;
59336;SDS011;45115;52.002;4.686;2022-08-01T05:23:08;8.10;;;3.60;;
59336;SDS011;45115;52.002;4.686;2022-08-01T05:25:34;7.72;;;3.58;;
59336;SDS011;45115;52.002;4.686;2022-08-01T05:28:01;7.20;;;3.80;;
59336;SDS011;45115;52.002;4.686;2022-08-01T05:30:27;6.28;;;3.55;;
59336;SDS011;45115;52.002;4.686;2022-08-01T05:32:54;8.63;;;3.67;;
59336;SDS011;45115;52.002;4.686;2022-08-01T05:35:21;9.23;;;3.97;;
59336;SDS011;45115;52.002;4.686;2022-08-01T05:37:49;8.07;;;3.45;;
59336;SDS011;45115;52.002;4.686;2022-08-01T05:40:15;7.00;;;3.78;;
59336;SDS011;45115;52.002;4.686;2022-08-01T05:42:42;9.25;;;3.70;;
59336;SDS011;45115;52.002;4.686;2022-08-01T05:45:09;7.53;;;3.67;;
59336;SDS011;45115;52.002;4.686;2022-08-01T05:47:36;6.78;;;3.60;;
59336;SDS011;45115;52.002;4.686;2022-08-01T05:50:03;7.85;;;3.80;;
59336;SDS011;45115;52.002;4.686;2022-08-01T05:52:30;8.25;;;4.15;;
59336;SDS011;45115;52.002;4.686;2022-08-01T05:54:58;8.00;;;3.58;;
59336;SDS011;45115;52.002;4.686;2022-08-01T05:57:25;6.43;;;3.42;;
59336;SDS011;45115;52.002;4.686;2022-08-01T05:59:52;5.68;;;3.10;;
59336;SDS011;45115;52.002;4.686;2022-08-01T06:02:18;10.98;;;3.90;;
59336;SDS011;45115;52.002;4.686;2022-08-01T06:04:45;6.50;;;3.95;;
59336;SDS011;45115;52.002;4.686;2022-08-01T06:07:12;7.78;;;3.75;;
59336;SDS011;45115;52.002;4.686;2022-08-01T06:09:38;6.85;;;3.42;;
59336;SDS011;45115;52.002;4.686;2022-08-01T06:12:06;6.90;;;2.85;;
59336;SDS011;45115;52.002;4.686;2022-08-01T06:14:33;5.25;;;3.03;;
59336;SDS011;45115;52.002;4.686;2022-08-01T06:17:00;6.93;;;3.45;;
59336;SDS011;45115;52.002;4.686;2022-08-01T06:19:26;5.63;;;3.15;;
59336;SDS011;45115;52.002;4.686;2022-08-01T06:21:53;5.68;;;3.22;;
59336;SDS011;45115;52.002;4.686;2022-08-01T06:24:19;11.55;;;3.60;;
59336;SDS011;45115;52.002;4.686;2022-08-01T06:26:48;9.63;;;4.10;;
59336;SDS011;45115;52.002;4.686;2022-08-01T06:29:16;9.73;;;4.30;;
59336;SDS011;45115;52.002;4.686;2022-08-01T06:31:42;11.18;;;4.45;;
59336;SDS011;45115;52.002;4.686;2022-08-01T06:34:09;7.00;;;4.05;;
59336;SDS011;45115;52.002;4.686;2022-08-01T06:36:35;11.65;;;4.50;;
59336;SDS011;45115;52.002;4.686;2022-08-01T06:39:03;11.63;;;4.93;;
59336;SDS011;45115;52.002;4.686;2022-08-01T06:41:29;8.57;;;4.80;;
59336;SDS011;45115;52.002;4.686;2022-08-01T06:43:56;13.43;;;6.40;;
59336;SDS011;45115;52.002;4.686;2022-08-01T06:46:27;12.38;;;6.68;;
59336;SDS011;45115;52.002;4.686;2022-08-01T06:48:54;13.40;;;6.80;;
59336;SDS011;45115;52.002;4.686;2022-08-01T06:51:21;17.08;;;7.82;;
59336;SDS011;45115;52.002;4.686;2022-08-01T06:53:47;16.05;;;7.88;;
59336;SDS011;45115;52.002;4.686;2022-08-01T06:56:14;14.75;;;7.50;;
59336;SDS011;45115;52.002;4.686;2022-08-01T06:58:40;16.17;;;7.90;;
59336;SDS011;45115;52.002;4.686;2022-08-01T07:01:07;17.00;;;7.97;;
59336;SDS011;45115;52.002;4.686;2022-08-01T07:03:35;17.55;;;7.90;;
59336;SDS011;45115;52.002;4.686;2022-08-01T07:06:02;14.93;;;7.20;;
59336;SDS011;45115;52.002;4.686;2022-08-01T07:08:29;15.35;;;7.78;;
59336;SDS011;45115;52.002;4.686;2022-08-01T07:10:55;18.17;;;8.20;;
59336;SDS011;45115;52.002;4.686;2022-08-01T07:13:24;22.02;;;8.48;;
59336;SDS011;45115;52.002;4.686;2022-08-01T07:15:51;21.75;;;8.95;;
59336;SDS011;45115;52.002;4.686;2022-08-01T07:18:18;19.30;;;8.95;;
59336;SDS011;45115;52.002;4.686;2022-08-01T07:20:47;18.98;;;8.07;;
59336;SDS011;45115;52.002;4.686;2022-08-01T07:23:14;16.17;;;7.60;;
59336;SDS011;45115;52.002;4.686;2022-08-01T07:25:41;18.13;;;8.43;;
59336;SDS011;45115;52.002;4.686;2022-08-01T07:28:08;17.70;;;8.25;;
59336;SDS011;45115;52.002;4.686;2022-08-01T07:30:35;18.77;;;8.60;;
59336;SDS011;45115;52.002;4.686;2022-08-01T07:33:02;20.38;;;9.07;;
59336;SDS011;45115;52.002;4.686;2022-08-01T07:35:29;19.35;;;8.50;;
59336;SDS011;45115;52.002;4.686;2022-08-01T07:37:57;16.30;;;7.53;;
59336;SDS011;45115;52.002;4.686;2022-08-01T07:40:24;18.38;;;8.02;;
59336;SDS011;45115;52.002;4.686;2022-08-01T07:42:50;20.42;;;8.18;;
59336;SDS011;45115;52.002;4.686;2022-08-01T07:45:17;18.17;;;7.00;;
59336;SDS011;45115;52.002;4.686;2022-08-01T07:47:44;21.50;;;8.00;;
59336;SDS011;45115;52.002;4.686;2022-08-01T07:50:11;18.20;;;6.53;;
59336;SDS011;45115;52.002;4.686;2022-08-01T07:52:38;15.38;;;6.05;;
59336;SDS011;45115;52.002;4.686;2022-08-01T07:55:07;13.65;;;5.20;;
59336;SDS011;45115;52.002;4.686;2022-08-01T07:57:35;13.05;;;5.50;;
59336;SDS011;45115;52.002;4.686;2022-08-01T08:00:02;14.85;;;5.18;;
59336;SDS011;45115;52.002;4.686;2022-08-01T08:02:30;14.43;;;4.65;;
59336;SDS011;45115;52.002;4.686;2022-08-01T08:04:57;12.73;;;4.50;;
59336;SDS011;45115;52.002;4.686;2022-08-01T08:07:24;10.48;;;4.35;;
59336;SDS011;45115;52.002;4.686;2022-08-01T08:09:50;10.43;;;4.07;;
59336;SDS011;45115;52.002;4.686;2022-08-01T08:12:19;11.75;;;4.15;;
59336;SDS011;45115;52.002;4.686;2022-08-01T08:14:45;11.23;;;3.60;;
59336;SDS011;45115;52.002;4.686;2022-08-01T08:17:12;14.38;;;4.72;;
59336;SDS011;45115;52.002;4.686;2022-08-01T08:19:39;12.93;;;4.10;;
59336;SDS011;45115;52.002;4.686;2022-08-01T08:22:06;15.32;;;3.90;;
59336;SDS011;45115;52.002;4.686;2022-08-01T08:24:34;10.25;;;3.20;;
59336;SDS011;45115;52.002;4.686;2022-08-01T08:27:01;15.32;;;4.28;;
59336;SDS011;45115;52.002;4.686;2022-08-01T08:29:30;11.43;;;3.70;;
59336;SDS011;45115;52.002;4.686;2022-08-01T08:31:58;8.82;;;3.47;;
59336;SDS011;45115;52.002;4.686;2022-08-01T08:34:26;11.52;;;3.42;;
59336;SDS011;45115;52.002;4.686;2022-08-01T08:36:54;9.07;;;3.97;;
59336;SDS011;45115;52.002;4.686;2022-08-01T08:39:22;9.23;;;3.42;;
59336;SDS011;45115;52.002;4.686;2022-08-01T08:41:50;10.13;;;3.60;;
59336;SDS011;45115;52.002;4.686;2022-08-01T08:44:17;11.75;;;3.58;;
59336;SDS011;45115;52.002;4.686;2022-08-01T08:46:47;9.93;;;3.28;;
59336;SDS011;45115;52.002;4.686;2022-08-01T08:49:17;9.55;;;3.58;;
59336;SDS011;45115;52.002;4.686;2022-08-01T08:51:47;11.32;;;3.30;;
59336;SDS011;45115;52.002;4.686;2022-08-01T08:54:14;9.65;;;3.40;;
59336;SDS011;45115;52.002;4.686;2022-08-01T08:56:42;8.38;;;3.10;;
59336;SDS011;45115;52.002;4.686;2022-08-01T08:59:11;10.27;;;4.22;;
59336;SDS011;45115;52.002;4.686;2022-08-01T09:01:39;7.22;;;2.88;;
59336;SDS011;45115;52.002;4.686;2022-08-01T09:04:07;10.40;;;2.70;;
59336;SDS011;45115;52.002;4.686;2022-08-01T09:06:34;6.65;;;3.03;;
59336;SDS011;45115;52.002;4.686;2022-08-01T09:09:01;8.90;;;2.83;;
59336;SDS011;45115;52.002;4.686;2022-08-01T09:11:28;8.60;;;2.95;;
59336;SDS011;45115;52.002;4.686;2022-08-01T09:14:02;12.18;;;3.50;;
59336;SDS011;45115;52.002;4.686;2022-08-01T09:16:31;7.90;;;3.35;;
59336;SDS011;45115;52.002;4.686;2022-08-01T09:19:10;12.63;;;3.67;;
59336;SDS011;45115;52.002;4.686;2022-08-01T09:21:39;10.13;;;2.75;;
59336;SDS011;45115;52.002;4.686;2022-08-01T09:24:16;8.52;;;2.88;;
59336;SDS011;45115;52.002;4.686;2022-08-01T09:26:44;3.97;;;2.30;;
59336;SDS011;45115;52.002;4.686;2022-08-01T09:29:17;4.28;;;2.20;;
59336;SDS011;45115;52.002;4.686;2022-08-01T09:31:45;9.57;;;2.70;;
59336;SDS011;45115;52.002;4.686;2022-08-01T09:34:14;8.10;;;2.40;;
59336;SDS011;45115;52.002;4.686;2022-08-01T09:36:45;6.53;;;2.85;;
59336;SDS011;45115;52.002;4.686;2022-08-01T09:39:16;8.30;;;2.72;;
59336;SDS011;45115;52.002;4.686;2022-08-01T09:41:44;6.10;;;2.40;;
59336;SDS011;45115;52.002;4.686;2022-08-01T09:44:11;5.80;;;2.58;;
59336;SDS011;45115;52.002;4.686;2022-08-01T09:46:48;7.35;;;2.50;;
59336;SDS011;45115;52.002;4.686;2022-08-01T09:49:30;6.53;;;2.83;;
59336;SDS011;45115;52.002;4.686;2022-08-01T09:54:35;8.88;;;2.50;;
59336;SDS011;45115;52.002;4.686;2022-08-01T09:57:08;11.38;;;3.33;;
59336;SDS011;45115;52.002;4.686;2022-08-01T09:59:37;8.13;;;3.03;;
59336;SDS011;45115;52.002;4.686;2022-08-01T10:02:07;6.82;;;2.85;;
59336;SDS011;45115;52.002;4.686;2022-08-01T10:04:36;8.43;;;2.45;;
59336;SDS011;45115;52.002;4.686;2022-08-01T10:07:04;8.80;;;2.90;;
59336;SDS011;45115;52.002;4.686;2022-08-01T10:09:34;8.32;;;2.92;;
59336;SDS011;45115;52.002;4.686;2022-08-01T10:12:02;6.70;;;3.10;;
59336;SDS011;45115;52.002;4.686;2022-08-01T10:14:30;6.75;;;3.08;;
59336;SDS011;45115;52.002;4.686;2022-08-01T10:16:57;6.55;;;2.90;;
59336;SDS011;45115;52.002;4.686;2022-08-01T10:19:26;8.75;;;2.90;;
59336;SDS011;45115;52.002;4.686;2022-08-01T10:21:56;10.65;;;3.08;;
59336;SDS011;45115;52.002;4.686;2022-08-01T10:24:24;8.48;;;2.95;;
59336;SDS011;45115;52.002;4.686;2022-08-01T10:26:55;7.70;;;3.23;;
59336;SDS011;45115;52.002;4.686;2022-08-01T10:29:27;7.05;;;2.95;;
59336;SDS011;45115;52.002;4.686;2022-08-01T10:31:55;9.45;;;3.05;;
59336;SDS011;45115;52.002;4.686;2022-08-01T10:34:22;6.60;;;2.65;;
59336;SDS011;45115;52.002;4.686;2022-08-01T13:53:43;7.97;;;2.92;;
59336;SDS011;45115;52.002;4.686;2022-08-01T13:56:10;8.25;;;3.05;;
59336;SDS011;45115;52.002;4.686;2022-08-01T13:58:36;7.50;;;2.72;;
59336;SDS011;45115;52.002;4.686;2022-08-01T14:01:03;8.43;;;3.15;;
59336;SDS011;45115;52.002;4.686;2022-08-01T14:03:30;4.55;;;2.83;;
59336;SDS011;45115;52.002;4.686;2022-08-01T14:05:56;8.27;;;2.83;;
59336;SDS011;45115;52.002;4.686;2022-08-01T14:08:25;7.00;;;2.83;;
59336;SDS011;45115;52.002;4.686;2022-08-01T14:10:53;7.00;;;2.80;;
59336;SDS011;45115;52.002;4.686;2022-08-01T14:13:22;8.57;;;2.97;;
59336;SDS011;45115;52.002;4.686;2022-08-01T14:15:49;6.75;;;2.90;;
59336;SDS011;45115;52.002;4.686;2022-08-01T14:18:15;7.30;;;2.90;;
59336;SDS011;45115;52.002;4.686;2022-08-01T14:20:42;5.22;;;2.85;;
59336;SDS011;45115;52.002;4.686;2022-08-01T14:23:09;8.40;;;3.15;;
59336;SDS011;45115;52.002;4.686;2022-08-01T14:25:36;7.95;;;2.95;;
59336;SDS011;45115;52.002;4.686;2022-08-01T14:28:06;7.95;;;3.10;;
59336;SDS011;45115;52.002;4.686;2022-08-01T14:30:33;8.13;;;2.97;;
59336;SDS011;45115;52.002;4.686;2022-08-01T14:33:00;7.07;;;2.90;;
59336;SDS011;45115;52.002;4.686;2022-08-01T14:35:26;7.65;;;3.20;;
59336;SDS011;45115;52.002;4.686;2022-08-01T14:37:53;7.32;;;2.80;;
59336;SDS011;45115;52.002;4.686;2022-08-01T14:40:20;4.30;;;2.75;;
59336;SDS011;45115;52.002;4.686;2022-08-01T14:42:46;7.78;;;2.92;;
59336;SDS011;45115;52.002;4.686;2022-08-01T14:45:14;8.00;;;2.80;;
59336;SDS011;45115;52.002;4.686;2022-08-01T14:47:41;5.45;;;2.45;;
59336;SDS011;45115;52.002;4.686;2022-08-01T14:50:09;4.40;;;2.95;;
59336;SDS011;45115;52.002;4.686;2022-08-01T14:52:38;10.70;;;3.28;;
59336;SDS011;45115;52.002;4.686;2022-08-01T14:55:06;6.13;;;2.67;;
59336;SDS011;45115;52.002;4.686;2022-08-01T14:57:34;5.72;;;2.80;;
59336;SDS011;45115;52.002;4.686;2022-08-01T15:00:01;6.85;;;3.35;;
59336;SDS011;45115;52.002;4.686;2022-08-01T15:02:31;9.60;;;3.13;;
59336;SDS011;45115;52.002;4.686;2022-08-01T15:04:58;8.07;;;3.42;;
59336;SDS011;45115;52.002;4.686;2022-08-01T15:07:24;7.15;;;2.95;;
59336;SDS011;45115;52.002;4.686;2022-08-01T15:09:51;10.00;;;3.63;;
59336;SDS011;45115;52.002;4.686;2022-08-01T15:12:18;7.70;;;3.20;;
59336;SDS011;45115;52.002;4.686;2022-08-01T15:14:47;5.95;;;3.00;;
59336;SDS011;45115;52.002;4.686;2022-08-01T15:17:14;5.03;;;2.73;;
59336;SDS011;45115;52.002;4.686;2022-08-01T15:19:42;8.00;;;2.80;;
59336;SDS011;45115;52.002;4.686;2022-08-01T15:22:09;6.55;;;2.97;;
59336;SDS011;45115;52.002;4.686;2022-08-01T15:24:36;5.97;;;2.83;;
59336;SDS011;45115;52.002;4.686;2022-08-01T15:27:03;7.50;;;3.10;;
59336;SDS011;45115;52.002;4.686;2022-08-01T15:29:30;8.88;;;3.58;;
59336;SDS011;45115;52.002;4.686;2022-08-01T15:31:58;7.15;;;2.85;;
59336;SDS011;45115;52.002;4.686;2022-08-01T15:34:25;7.82;;;2.97;;
59336;SDS011;45115;52.002;4.686;2022-08-01T15:36:53;9.02;;;3.55;;
59336;SDS011;45115;52.002;4.686;2022-08-01T15:39:19;10.23;;;3.20;;
59336;SDS011;45115;52.002;4.686;2022-08-01T15:41:49;6.83;;;3.70;;
59336;SDS011;45115;52.002;4.686;2022-08-01T15:44:16;6.47;;;3.40;;
59336;SDS011;45115;52.002;4.686;2022-08-01T15:46:47;8.15;;;2.95;;
59336;SDS011;45115;52.002;4.686;2022-08-01T15:49:15;6.97;;;2.72;;
59336;SDS011;45115;52.002;4.686;2022-08-01T15:51:43;5.60;;;3.15;;
59336;SDS011;45115;52.002;4.686;2022-08-01T15:54:13;5.18;;;2.78;;
59336;SDS011;45115;52.002;4.686;2022-08-01T15:56:39;9.05;;;3.28;;
59336;SDS011;45115;52.002;4.686;2022-08-01T15:59:06;7.18;;;2.90;;
59336;SDS011;45115;52.002;4.686;2022-08-01T16:01:34;4.15;;;2.90;;
59336;SDS011;45115;52.002;4.686;2022-08-01T16:04:01;6.07;;;2.90;;
59336;SDS011;45115;52.002;4.686;2022-08-01T16:06:28;6.32;;;2.70;;
59336;SDS011;45115;52.002;4.686;2022-08-01T16:08:54;4.63;;;2.30;;
59336;SDS011;45115;52.002;4.686;2022-08-01T16:11:22;5.43;;;3.08;;
59336;SDS011;45115;52.002;4.686;2022-08-01T16:13:51;4.97;;;2.50;;
59336;SDS011;45115;52.002;4.686;2022-08-01T16:16:18;5.38;;;2.90;;
59336;SDS011;45115;52.002;4.686;2022-08-01T16:18:45;3.63;;;2.55;;
59336;SDS011;45115;52.002;4.686;2022-08-01T16:21:12;6.35;;;2.60;;
59336;SDS011;45115;52.002;4.686;2022-08-01T16:23:39;6.68;;;2.70;;
59336;SDS011;45115;52.002;4.686;2022-08-01T16:26:06;6.35;;;2.70;;
59336;SDS011;45115;52.002;4.686;2022-08-01T16:28:38;4.75;;;2.50;;
59336;SDS011;45115;52.002;4.686;2022-08-01T16:31:05;6.03;;;2.40;;
59336;SDS011;45115;52.002;4.686;2022-08-01T16:33:32;3.45;;;2.30;;
59336;SDS011;45115;52.002;4.686;2022-08-01T16:35:59;4.15;;;2.83;;
59336;SDS011;45115;52.002;4.686;2022-08-01T16:38:25;6.53;;;2.70;;
59336;SDS011;45115;52.002;4.686;2022-08-01T16:40:54;4.50;;;2.40;;
59336;SDS011;45115;52.002;4.686;2022-08-01T16:43:20;6.35;;;2.65;;
59336;SDS011;45115;52.002;4.686;2022-08-01T16:45:50;4.65;;;2.42;;
59336;SDS011;45115;52.002;4.686;2022-08-01T16:48:17;6.93;;;3.45;;
59336;SDS011;45115;52.002;4.686;2022-08-01T16:50:44;4.80;;;2.97;;
59336;SDS011;45115;52.002;4.686;2022-08-01T16:53:14;4.80;;;2.33;;
59336;SDS011;45115;52.002;4.686;2022-08-01T16:55:41;6.07;;;2.42;;
59336;SDS011;45115;52.002;4.686;2022-08-01T16:58:10;5.32;;;2.50;;
59336;SDS011;45115;52.002;4.686;2022-08-01T17:00:38;5.90;;;2.70;;
59336;SDS011;45115;52.002;4.686;2022-08-01T17:03:08;5.18;;;2.47;;
59336;SDS011;45115;52.002;4.686;2022-08-01T17:05:36;5.20;;;2.40;;
59336;SDS011;45115;52.002;4.686;2022-08-01T17:08:03;5.40;;;2.47;;
59336;SDS011;45115;52.002;4.686;2022-08-01T17:10:30;4.63;;;2.30;;
59336;SDS011;45115;52.002;4.686;2022-08-01T17:12:59;4.28;;;2.38;;
59336;SDS011;45115;52.002;4.686;2022-08-01T17:15:26;3.45;;;2.10;;
59336;SDS011;45115;52.002;4.686;2022-08-01T17:17:53;5.20;;;2.50;;
59336;SDS011;45115;52.002;4.686;2022-08-01T17:20:21;5.30;;;2.42;;
59336;SDS011;45115;52.002;4.686;2022-08-01T17:22:49;3.95;;;2.22;;
59336;SDS011;45115;52.002;4.686;2022-08-01T17:25:18;5.70;;;2.58;;
59336;SDS011;45115;52.002;4.686;2022-08-01T17:27:46;3.15;;;2.35;;
59336;SDS011;45115;52.002;4.686;2022-08-01T17:30:17;5.00;;;2.50;;
59336;SDS011;45115;52.002;4.686;2022-08-01T17:32:44;6.43;;;2.30;;
59336;SDS011;45115;52.002;4.686;2022-08-01T17:35:12;3.15;;;2.30;;
59336;SDS011;45115;52.002;4.686;2022-08-01T17:37:40;4.40;;;2.35;;
59336;SDS011;45115;52.002;4.686;2022-08-01T17:40:07;4.78;;;2.30;;
59336;SDS011;45115;52.002;4.686;2022-08-01T17:42:36;4.68;;;2.25;;
59336;SDS011;45115;52.002;4.686;2022-08-01T17:45:05;3.28;;;2.17;;
59336;SDS011;45115;52.002;4.686;2022-08-01T17:47:32;4.57;;;2.33;;
59336;SDS011;45115;52.002;4.686;2022-08-01T17:49:59;4.20;;;2.20;;
59336;SDS011;45115;52.002;4.686;2022-08-01T17:52:28;3.78;;;2.15;;
59336;SDS011;45115;52.002;4.686;2022-08-01T17:54:57;3.15;;;2.20;;
59336;SDS011;45115;52.002;4.686;2022-08-01T17:57:24;4.00;;;2.30;;
59336;SDS011;45115;52.002;4.686;2022-08-01T17:59:51;7.32;;;2.75;;
59336;SDS011;45115;52.002;4.686;2022-08-01T18:02:17;4.20;;;2.58;;
59336;SDS011;45115;52.002;4.686;2022-08-01T18:04:44;5.38;;;2.17;;
59336;SDS011;45115;52.002;4.686;2022-08-01T18:07:16;4.25;;;2.15;;
59336;SDS011;45115;52.002;4.686;2022-08-01T18:09:42;3.25;;;2.47;;
59336;SDS011;45115;52.002;4.686;2022-08-01T18:12:11;4.68;;;2.50;;